Aviation Digital Data Service (ADDS)

Output produced by METARs form (0738 UTC 24 March 2019)
found at http://www.aviationweather.gov/metar/data/
 
SKUC 240300Z 00000KT 9999 FEW030 BKN200 29/18 A2989
SKAR 240300Z 00000KT 9999 SCT023 SCT100 22/19 A3005
SKBQ 240700Z 36006KT 9999 FEW015 26/24 A2986
TAF SKBQ 240500Z 2406/2506 01012KT 9999 SCT015 
     TEMPO 2410/2412 4000 BR BKN010 TX33/2417Z TN25/2410Z
       
SKBO 240700Z 35003KT 9000 FEW015 SCT070 13/12 A3036 RMK HZ
TAF SKBO 240500Z 2406/2506 04003KT 9999 SCT020 SCT080 
     TEMPO 2406/2408 8000 VCFG -RA SCT017TCU 
     TEMPO 2409/2413 7000 VCFG -DZ SCT013 
     BECMG 2414/2416 26008KT 
     TEMPO 2419/2423 7000 RADZ SCT017CB TX19/2418Z TN10/2411Z
       
SKBG 240400Z VRB02KT 9999 FEW010 BKN070 20/20 A3008
TAF SKBG 240500Z 2406/2506 VRB02KT 9999 FEW015 SCT080 
     TEMPO 2406/2409 8000 VCFG -DZRA SCT013CB 
     TEMPO 2409/2413 3000 BCFG -DZ SCT007 
     BECMG 2414/2416 32008KT 
     TEMPO 2419/2422 7000 DZRA SCT013TCU TX25/2419Z TN18/2411Z
       
SKCL 240700Z VRB02KT 9999 FEW023 BKN100 21/19 A3001
TAF SKCL 240500Z 2406/2506 VRB02KT 9999 FEW023 SCT120 
     TEMPO 2406/2408 8000 VCFG SCT017 
     TEMPO 2409/2413 5000 BCFG DZ SCT015 
     BECMG 2416/2418 33010KT 
     TEMPO 2420/2423 8000 RA SCT020CB TX32/2418Z TN18/2411Z
       
SKCG 240700Z 02006KT 9999 FEW017 26/24 A2986
TAF SKCG 240500Z 2406/2506 03008KT 9999 SCT017 
     TEMPO 2410/2412 9000 MIFG SCT010 
     BECMG 2414/2416 35018KT 
     TEMPO 2420/2422 9000 SCT017TCU TX32/2418Z TN25/2411Z
       
SKCC 240500Z 14004KT 8000 SCT018 24/22 A3001 RMK HZ
TAF SKCC 240500Z 2406/2506 VRB02KT 9000 SCT020 
     TEMPO 2409/2413 5000 BR DZ SCT012 
     BECMG 2413/2415 36012KT 
     PROB40 
     TEMPO 2419/2422 8000 DZRA SCT020TCU TX31/2419Z TN22/2411Z
       
SKIB 240200Z VRB02KT 5000 BR BKN010 OVC080 23/23 A3011
SKLT 240700Z 00000KT 9999 BKN010 BKN080 25/25 A2992
TAF SKLT 240500Z 2406/2506 VRB02KT 9999 SCT018 BKN080 
     TEMPO 2406/2409 7000 DZRA SCT013CB 
     TEMPO 2409/2413 3000 BR DZ SCT007 
     BECMG 2413/2415 28008KT 
     TEMPO 2418/2422 6000 TSRA SCT015CB TX31/2418Z TN23/2411Z
       
SKRG 240700Z 01004KT 6000 VCFG BKN007 SCT200 16/15 A3032
TAF SKRG 240500Z 2406/2506 03003KT 9999 SCT017 SCT090 
     TEMPO 2406/2408 8000 VCFG DZRA SCT013CB 
     TEMPO 2408/2413 5000 BCFG DZ BKN010 
     PROB40 2410/2412 2000 BR SCT007 
     BECMG 2414/2416 12008KT 
     TEMPO 2420/2423 8000 RA SCT018CB TX23/2419Z TN13/2411Z
       
SKMR 240400Z 00000KT 9999 FEW020 27/24 A2992
SKNV 240300Z 10003KT 070V130 9999 FEW027 BKN090 26/23 A2995
SKPE 240500Z 07004KT 9998 SCT015 SCT070 21/20 A3010
TAF SKPE 240500Z 2406/2506 09003KT 9999 SCT017 SCT080 
     TEMPO 2406/2409 7000 VCFG RA SCT013CB 
     TEMPO 2409/2413 5000 BCFG -DZRA SCT010 
     BECMG 2413/2415 27008KT 
     TEMPO 2419/2423 8000 DZRA SCT017CB TX26/2419Z TN18/2411Z
       
SKSP 240600Z 04005KT 9999 FEW016 26/22 A3001
TAF SKSP 240500Z 2406/2506 04006KT 9999 FEW018 TX30/2419Z TN25/2411Z
       
SKSM 240500Z 30004KT 8000 FEW020 SCT200 28/24 A2989 RMK HZ
SKVP 240400Z 08013KT 9999 FEW020 SCT200 28/19 A2998